createdAt,value
2023-01-22T00:01:15.664Z,24.40
2023-01-22T00:03:46.614Z,24.40
2023-01-22T00:06:15.440Z,24.39
2023-01-22T00:08:44.825Z,24.38
2023-01-22T00:11:14.083Z,24.37
2023-01-22T00:13:43.337Z,24.35
2023-01-22T00:16:14.407Z,24.35
2023-01-22T00:18:43.911Z,24.33
2023-01-22T00:21:13.522Z,24.31
2023-01-22T00:23:42.864Z,24.31
2023-01-22T00:26:12.901Z,24.29
2023-01-22T00:28:46.070Z,24.28
2023-01-22T00:31:15.605Z,24.27
2023-01-22T00:33:44.903Z,24.26
2023-01-22T00:36:17.914Z,24.25
2023-01-22T00:39:07.586Z,24.23
2023-01-22T00:41:37.255Z,24.21
2023-01-22T00:44:06.492Z,24.19
2023-01-22T00:46:35.765Z,24.17
2023-01-22T00:49:04.960Z,24.17
2023-01-22T00:51:34.565Z,24.15
2023-01-22T00:54:03.789Z,24.13
2023-01-22T00:56:32.879Z,24.13
2023-01-22T00:59:02.331Z,24.09
2023-01-22T01:01:31.621Z,24.08
2023-01-22T01:04:00.761Z,24.09
2023-01-22T01:06:30.047Z,24.08
2023-01-22T01:08:59.752Z,24.06
2023-01-22T01:11:30.657Z,24.04
2023-01-22T01:13:59.910Z,24.03
2023-01-22T01:16:30.688Z,24.01
2023-01-22T01:19:04.037Z,24.00
2023-01-22T01:21:33.105Z,23.99
2023-01-22T01:24:02.300Z,23.98
2023-01-22T01:26:31.538Z,23.97
2023-01-22T01:29:00.828Z,23.95
2023-01-22T01:31:30.235Z,23.94
2023-01-22T01:34:00.126Z,23.93
2023-01-22T01:36:47.657Z,23.90
2023-01-22T01:38:59.924Z,23.90
2023-01-22T01:41:29.807Z,23.89
2023-01-22T01:44:13.479Z,23.87
2023-01-22T01:47:02.180Z,23.86
2023-01-22T01:49:35.882Z,23.85
2023-01-22T01:52:05.925Z,23.83
2023-01-22T01:54:36.785Z,23.82
2023-01-22T01:57:10.559Z,23.80
2023-01-22T01:59:40.207Z,23.80
2023-01-22T02:02:09.830Z,23.78
2023-01-22T02:04:39.025Z,23.76
2023-01-22T02:07:08.263Z,23.76
2023-01-22T02:09:37.798Z,23.75
2023-01-22T02:12:07.653Z,23.74
2023-01-22T02:14:37.233Z,23.73
2023-01-22T02:17:12.095Z,23.69
2023-01-22T02:19:41.467Z,23.69
2023-01-22T02:22:14.672Z,23.67
2023-01-22T02:27:44.816Z,23.65
2023-01-22T02:30:14.372Z,23.62
2023-01-22T02:32:44.081Z,23.62
2023-01-22T02:35:13.396Z,23.63
2023-01-22T02:37:42.783Z,23.65
2023-01-22T02:40:12.727Z,23.67
2023-01-22T02:42:42.935Z,23.68
2023-01-22T02:45:12.298Z,23.71
2023-01-22T02:47:41.492Z,23.74
2023-01-22T02:50:11.472Z,23.76
2023-01-22T02:52:40.730Z,23.78
2023-01-22T02:55:10.175Z,23.81
2023-01-22T02:57:39.388Z,23.83
2023-01-22T03:00:09.125Z,23.86
2023-01-22T03:02:38.307Z,23.89
2023-01-22T03:05:08.045Z,23.93
2023-01-22T03:07:43.497Z,23.95
2023-01-22T03:10:19.609Z,23.98
2023-01-22T03:13:06.582Z,24.02
2023-01-22T03:15:53.134Z,24.04
2023-01-22T03:18:39.973Z,24.08
2023-01-22T03:21:18.227Z,24.12
2023-01-22T03:23:51.168Z,24.14
2023-01-22T03:26:20.764Z,24.18
2023-01-22T03:28:50.154Z,24.21
2023-01-22T03:31:19.570Z,24.24
2023-01-22T03:33:48.976Z,24.27
2023-01-22T03:36:18.375Z,24.31
2023-01-22T03:38:47.632Z,24.35
2023-01-22T03:41:17.076Z,24.36
2023-01-22T03:43:46.531Z,24.40
2023-01-22T03:46:17.567Z,24.44
2023-01-22T03:48:47.028Z,24.47
2023-01-22T03:51:17.346Z,24.50
2023-01-22T03:53:46.651Z,24.54
2023-01-22T03:56:16.453Z,24.57
2023-01-22T03:58:45.706Z,24.61
2023-01-22T04:01:16.325Z,24.63
2023-01-22T04:03:45.622Z,24.65
2023-01-22T04:06:14.965Z,24.66
2023-01-22T04:08:44.338Z,24.64
2023-01-22T04:11:13.566Z,24.61
2023-01-22T04:13:43.062Z,24.59
2023-01-22T04:16:12.422Z,24.57
2023-01-22T04:18:42.140Z,24.57
2023-01-22T04:21:11.382Z,24.55
2023-01-22T04:23:40.599Z,24.53
2023-01-22T04:26:09.843Z,24.52
2023-01-22T04:28:41.916Z,24.50
2023-01-22T04:31:11.152Z,24.49
2023-01-22T04:33:40.463Z,24.48
2023-01-22T04:36:10.841Z,24.46
2023-01-22T04:38:40.104Z,24.44
2023-01-22T04:41:09.300Z,24.43
2023-01-22T04:43:38.650Z,24.42
2023-01-22T04:46:08.092Z,24.40
2023-01-22T04:48:37.213Z,24.38
2023-01-22T04:51:06.639Z,24.37
2023-01-22T04:53:35.873Z,24.34
2023-01-22T04:56:05.146Z,24.33
2023-01-22T04:58:34.750Z,24.31
2023-01-22T05:01:03.943Z,24.30
2023-01-22T05:03:33.364Z,24.27
2023-01-22T05:06:05.816Z,24.27
2023-01-22T05:08:35.211Z,24.25
2023-01-22T05:11:04.458Z,24.23
2023-01-22T05:13:33.843Z,24.21
2023-01-22T05:16:03.134Z,24.20
2023-01-22T05:18:32.367Z,24.17
2023-01-22T05:21:01.595Z,24.15
2023-01-22T05:23:30.753Z,24.14
2023-01-22T05:26:00.490Z,24.12
2023-01-22T05:28:30.495Z,24.09
2023-01-22T05:31:00.351Z,24.07
2023-01-22T05:33:31.762Z,24.06
2023-01-22T05:36:01.882Z,24.04
2023-01-22T05:38:31.346Z,24.03
2023-01-22T05:41:00.822Z,24.00
2023-01-22T05:43:30.919Z,23.99
2023-01-22T05:46:03.510Z,23.96
2023-01-22T05:48:33.819Z,23.95
2023-01-22T05:51:09.139Z,23.94
2023-01-22T05:53:38.480Z,23.91
2023-01-22T05:56:08.108Z,23.89
2023-01-22T05:58:37.384Z,23.86
2023-01-22T06:01:06.611Z,23.84
2023-01-22T06:03:35.862Z,23.82
2023-01-22T06:06:06.045Z,23.80
2023-01-22T06:08:35.315Z,23.79
2023-01-22T06:11:04.885Z,23.75
2023-01-22T06:13:34.027Z,23.74
2023-01-22T06:16:03.260Z,23.72
2023-01-22T06:18:32.588Z,23.70
2023-01-22T06:21:02.273Z,23.67
2023-01-22T06:23:31.563Z,23.66
2023-01-22T06:26:01.059Z,23.63
2023-01-22T06:28:30.471Z,23.62
2023-01-22T06:31:02.797Z,23.59
2023-01-22T06:33:32.073Z,23.57
2023-01-22T06:36:04.044Z,23.55
2023-01-22T06:38:34.090Z,23.54
2023-01-22T06:41:03.254Z,23.52
2023-01-22T06:43:32.782Z,23.50
2023-01-22T06:46:02.093Z,23.48
2023-01-22T06:48:31.254Z,23.47
2023-01-22T06:51:00.972Z,23.44
2023-01-22T06:53:30.186Z,23.42
2023-01-22T06:56:02.472Z,23.40
2023-01-22T06:58:31.858Z,23.38
2023-01-22T07:01:04.205Z,23.37
2023-01-22T07:03:33.489Z,23.34
2023-01-22T07:06:03.385Z,23.32
2023-01-22T07:08:33.072Z,23.30
2023-01-22T07:11:02.392Z,23.28
2023-01-22T07:13:31.563Z,23.26
2023-01-22T07:16:02.062Z,23.25
2023-01-22T07:18:31.369Z,23.22
2023-01-22T07:21:04.172Z,23.19
2023-01-22T07:23:33.394Z,23.17
2023-01-22T07:26:02.797Z,23.15
2023-01-22T07:28:32.023Z,23.13
2023-01-22T07:31:01.775Z,23.11
2023-01-22T07:33:31.024Z,23.09
2023-01-22T07:36:00.329Z,23.08
2023-01-22T07:38:29.783Z,23.06
2023-01-22T07:41:07.204Z,23.00
2023-01-22T07:43:34.503Z,22.99
2023-01-22T07:46:07.106Z,22.97
2023-01-22T07:48:36.414Z,22.94
2023-01-22T07:51:06.740Z,22.93
2023-01-22T07:53:36.151Z,22.91
2023-01-22T07:56:06.523Z,22.90
2023-01-22T07:58:35.754Z,22.86
2023-01-22T08:01:08.477Z,22.83
2023-01-22T08:03:38.876Z,22.83
2023-01-22T08:06:11.177Z,22.81
2023-01-22T08:08:40.457Z,22.77
2023-01-22T08:11:09.675Z,22.76
2023-01-22T08:13:38.932Z,22.76
2023-01-22T08:16:09.774Z,22.72
2023-01-22T08:18:38.996Z,22.70
2023-01-22T08:21:08.533Z,22.69
2023-01-22T08:23:37.700Z,22.68
2023-01-22T08:26:06.996Z,22.66
2023-01-22T08:28:36.244Z,22.64
2023-01-22T08:31:07.802Z,22.62
2023-01-22T08:33:36.052Z,22.61
2023-01-22T08:36:05.529Z,22.58
2023-01-22T08:38:34.735Z,22.57
2023-01-22T08:41:04.297Z,22.55
2023-01-22T08:43:33.583Z,22.52
2023-01-22T08:46:02.891Z,22.51
2023-01-22T08:48:32.081Z,22.49
2023-01-22T08:51:04.691Z,22.48
2023-01-22T08:53:34.316Z,22.45
2023-01-22T08:56:03.394Z,22.43
2023-01-22T08:58:32.686Z,22.40
2023-01-22T09:01:02.268Z,22.40
2023-01-22T09:03:31.793Z,22.38
2023-01-22T09:06:01.534Z,22.38
2023-01-22T09:08:30.970Z,22.34
2023-01-22T09:11:00.865Z,22.31
2023-01-22T09:13:30.171Z,22.29
2023-01-22T09:15:59.369Z,22.28
2023-01-22T09:18:29.071Z,22.27
2023-01-22T09:21:00.455Z,22.25
2023-01-22T09:23:30.062Z,22.23
2023-01-22T09:26:00.109Z,22.22
2023-01-22T09:28:30.165Z,22.19
2023-01-22T09:30:59.459Z,22.18
2023-01-22T09:33:29.248Z,22.16
2023-01-22T09:36:00.649Z,22.13
2023-01-22T09:38:30.272Z,22.13
2023-01-22T09:41:00.278Z,22.12
2023-01-22T09:45:59.534Z,22.16
2023-01-22T09:48:30.574Z,22.20
2023-01-22T09:51:00.273Z,22.21
2023-01-22T09:53:30.106Z,22.24
2023-01-22T09:56:00.420Z,22.26
2023-01-22T09:58:30.215Z,22.27
2023-01-22T10:01:03.157Z,22.27
2023-01-22T10:03:33.817Z,22.27
2023-01-22T10:06:04.354Z,22.30
2023-01-22T10:08:34.611Z,22.29
2023-01-22T10:11:04.720Z,22.28
2023-01-22T10:13:37.169Z,22.27
2023-01-22T10:16:06.438Z,22.27
2023-01-22T10:18:54.240Z,22.27
2023-01-22T10:21:27.711Z,22.26
2023-01-22T10:23:58.951Z,22.25
2023-01-22T10:26:40.979Z,22.24
2023-01-22T10:29:11.282Z,22.23
2023-01-22T10:31:44.927Z,22.22
2023-01-22T10:34:18.452Z,22.20
2023-01-22T10:36:54.327Z,22.21
2023-01-22T10:39:23.769Z,22.20
2023-01-22T10:41:53.047Z,22.19
2023-01-22T10:44:23.898Z,22.18
2023-01-22T10:46:53.639Z,22.17
2023-01-22T10:49:23.726Z,22.14
2023-01-22T10:51:57.041Z,22.13
2023-01-22T10:54:27.677Z,22.12
2023-01-22T10:56:58.955Z,22.11
2023-01-22T10:59:29.352Z,22.10
2023-01-22T11:02:00.175Z,22.08
2023-01-22T11:04:30.924Z,22.06
2023-01-22T11:07:04.244Z,22.04
2023-01-22T11:09:51.123Z,22.05
2023-01-22T11:12:21.703Z,22.02
2023-01-22T11:14:52.427Z,22.02
2023-01-22T11:17:27.848Z,22.01
2023-01-22T11:19:59.306Z,22.00
2023-01-22T11:22:36.069Z,21.98
2023-01-22T11:25:07.406Z,21.96
2023-01-22T11:27:37.320Z,21.98
2023-01-22T11:30:24.387Z,21.96
2023-01-22T11:32:58.199Z,21.94
2023-01-22T11:35:38.148Z,21.93
2023-01-22T11:38:08.819Z,21.91
2023-01-22T11:40:39.143Z,21.90
2023-01-22T11:43:09.815Z,21.89
2023-01-22T11:45:53.709Z,21.88
2023-01-22T11:48:36.166Z,21.87
2023-01-22T11:51:15.819Z,21.84
2023-01-22T11:53:46.361Z,21.85
2023-01-22T11:56:23.181Z,21.85
2023-01-22T11:58:53.723Z,21.88
2023-01-22T12:01:30.484Z,21.90
2023-01-22T12:04:05.116Z,21.95
2023-01-22T12:06:38.772Z,22.01
2023-01-22T12:09:21.661Z,22.08
2023-01-22T12:12:01.167Z,22.13
2023-01-22T12:14:47.980Z,22.22
2023-01-22T12:17:18.611Z,22.27
2023-01-22T12:19:49.572Z,22.35
2023-01-22T12:22:35.174Z,22.41
2023-01-22T12:25:06.475Z,22.49
2023-01-22T12:27:40.058Z,22.54
2023-01-22T12:30:11.233Z,22.57
2023-01-22T12:32:40.831Z,22.62
2023-01-22T12:35:11.564Z,22.69
2023-01-22T12:37:54.544Z,22.76
2023-01-22T12:40:25.329Z,22.83
2023-01-22T12:42:55.991Z,22.90
2023-01-22T12:45:26.549Z,22.94
2023-01-22T12:48:15.185Z,22.99
2023-01-22T12:50:51.312Z,23.02
2023-01-22T12:53:21.957Z,23.09
2023-01-22T12:56:04.474Z,23.16
2023-01-22T12:58:34.637Z,23.21
2023-01-22T13:01:11.116Z,23.25
2023-01-22T13:03:40.879Z,23.29
2023-01-22T13:06:23.406Z,23.32
2023-01-22T13:08:52.593Z,23.35
2023-01-22T13:11:35.195Z,23.41
2023-01-22T13:14:15.230Z,23.47
2023-01-22T13:16:42.587Z,23.52
2023-01-22T13:19:16.489Z,23.57
2023-01-22T13:21:45.820Z,23.60
2023-01-22T13:24:19.244Z,23.63
2023-01-22T13:26:58.329Z,23.67
2023-01-22T13:29:33.632Z,23.70
2023-01-22T13:32:03.589Z,23.71
2023-01-22T13:34:33.156Z,23.76
2023-01-22T13:37:02.445Z,23.82
2023-01-22T13:39:32.512Z,23.87
2023-01-22T13:42:02.751Z,23.92
2023-01-22T13:44:36.079Z,23.95
2023-01-22T13:47:05.377Z,23.99
2023-01-22T13:49:35.167Z,24.02
2023-01-22T13:52:05.366Z,24.05
2023-01-22T13:54:36.245Z,24.08
2023-01-22T13:57:06.412Z,24.12
2023-01-22T13:59:39.355Z,24.18
2023-01-22T14:02:15.866Z,24.21
2023-01-22T14:04:45.207Z,24.24
2023-01-22T14:07:17.211Z,24.28
2023-01-22T14:09:46.515Z,24.31
2023-01-22T14:12:17.258Z,24.34
2023-01-22T14:14:46.528Z,24.37
2023-01-22T14:17:29.573Z,24.39
2023-01-22T14:20:01.871Z,24.44
2023-01-22T14:22:31.275Z,24.47
2023-01-22T14:25:01.057Z,24.50
2023-01-22T14:27:32.140Z,24.51
2023-01-22T14:30:02.132Z,24.55
2023-01-22T14:32:32.637Z,24.58
2023-01-22T14:35:02.783Z,24.61
2023-01-22T14:37:32.164Z,24.62
2023-01-22T14:40:01.922Z,24.66
2023-01-22T14:42:31.713Z,24.67
2023-01-22T14:45:01.985Z,24.71
2023-01-22T14:47:31.757Z,24.75
2023-01-22T14:50:01.687Z,24.78
2023-01-22T14:52:30.946Z,24.80
2023-01-22T14:55:00.896Z,24.84
2023-01-22T14:57:30.915Z,24.86
2023-01-22T15:00:00.950Z,24.89
2023-01-22T15:02:30.306Z,24.90
2023-01-22T15:05:00.173Z,24.94
2023-01-22T15:07:30.034Z,24.92
2023-01-22T15:10:00.044Z,24.90
2023-01-22T15:12:30.070Z,24.86
2023-01-22T15:15:00.024Z,24.84
2023-01-22T15:17:29.948Z,24.83
2023-01-22T15:20:00.099Z,24.81
2023-01-22T15:22:30.026Z,24.77
2023-01-22T15:24:59.960Z,24.78
2023-01-22T15:27:30.132Z,24.75
2023-01-22T15:30:00.103Z,24.74
2023-01-22T15:32:30.069Z,24.72
2023-01-22T15:35:00.151Z,24.70
2023-01-22T15:37:30.015Z,24.68
2023-01-22T15:39:59.979Z,24.65
2023-01-22T15:42:30.062Z,24.66
2023-01-22T15:44:59.979Z,24.63
2023-01-22T15:47:30.217Z,24.62
2023-01-22T15:50:00.444Z,24.61
2023-01-22T15:52:30.124Z,24.58
2023-01-22T15:55:00.422Z,24.55
2023-01-22T15:57:30.185Z,24.51
2023-01-22T16:00:00.199Z,24.54
2023-01-22T16:02:30.192Z,24.51
2023-01-22T16:05:00.192Z,24.50
2023-01-22T16:07:30.131Z,24.47
2023-01-22T16:10:00.156Z,24.46
2023-01-22T16:12:31.255Z,24.43
2023-01-22T16:15:00.479Z,24.39
2023-01-22T16:17:30.169Z,24.39
2023-01-22T16:20:00.332Z,24.38
2023-01-22T16:22:30.159Z,24.33
2023-01-22T16:25:00.074Z,24.31
2023-01-22T16:27:30.178Z,24.32
2023-01-22T16:30:00.178Z,24.34
2023-01-22T16:32:30.234Z,24.33
2023-01-22T16:35:00.295Z,24.36
2023-01-22T16:37:30.179Z,24.37
2023-01-22T16:40:00.134Z,24.37
2023-01-22T16:42:30.461Z,24.43
2023-01-22T16:45:00.304Z,24.46
2023-01-22T16:47:30.239Z,24.46
2023-01-22T16:50:00.347Z,24.49
2023-01-22T16:52:30.193Z,24.52
2023-01-22T16:55:00.429Z,24.53
2023-01-22T16:57:30.299Z,24.58
2023-01-22T17:00:00.372Z,24.60
2023-01-22T17:02:30.231Z,24.62
2023-01-22T17:05:00.360Z,24.65
2023-01-22T17:07:33.990Z,24.68
2023-01-22T17:10:01.225Z,24.71
2023-01-22T17:12:31.247Z,24.73
2023-01-22T17:15:01.235Z,24.76
2023-01-22T17:17:32.819Z,24.77
2023-01-22T17:20:02.170Z,24.82
2023-01-22T17:22:33.471Z,24.84
2023-01-22T17:25:02.699Z,24.86
2023-01-22T17:27:33.549Z,24.90
2023-01-22T17:30:02.919Z,24.91
2023-01-22T17:32:32.210Z,24.95
2023-01-22T17:35:02.262Z,24.96
2023-01-22T17:37:31.561Z,24.98
2023-01-22T17:40:01.120Z,25.01
2023-01-22T17:42:31.567Z,25.03
2023-01-22T17:45:01.216Z,25.06
2023-01-22T17:47:31.234Z,25.09
2023-01-22T17:50:00.583Z,25.10
2023-01-22T17:52:30.248Z,25.12
2023-01-22T17:55:00.907Z,25.10
2023-01-22T17:57:31.345Z,25.07
2023-01-22T18:00:01.191Z,25.02
2023-01-22T18:02:31.348Z,25.00
2023-01-22T18:05:01.615Z,24.98
2023-01-22T18:07:31.399Z,24.98
2023-01-22T18:10:01.195Z,24.95
2023-01-22T18:12:31.354Z,24.93
2023-01-22T18:15:01.300Z,24.92
2023-01-22T18:17:31.317Z,24.90
2023-01-22T18:20:01.359Z,24.87
2023-01-22T18:22:31.541Z,24.85
2023-01-22T18:25:01.376Z,24.83
2023-01-22T18:27:31.697Z,24.82
2023-01-22T18:30:01.296Z,24.80
2023-01-22T18:32:31.635Z,24.78
2023-01-22T18:35:01.470Z,24.77
2023-01-22T18:37:32.666Z,24.74
2023-01-22T18:40:02.319Z,24.72
2023-01-22T18:42:32.348Z,24.71
2023-01-22T18:45:02.210Z,24.69
2023-01-22T18:47:33.676Z,24.66
2023-01-22T18:50:02.965Z,24.64
2023-01-22T18:52:32.286Z,24.64
2023-01-22T18:55:02.309Z,24.60
2023-01-22T18:57:35.066Z,24.58
2023-01-22T19:00:04.732Z,24.58
2023-01-22T19:02:33.889Z,24.55
2023-01-22T19:05:03.197Z,24.54
2023-01-22T19:07:33.889Z,24.52
2023-01-22T19:10:04.155Z,24.50
2023-01-22T19:12:33.696Z,24.48
2023-01-22T19:15:23.633Z,24.47
2023-01-22T19:17:52.941Z,24.44
2023-01-22T19:20:22.370Z,24.43
2023-01-22T19:22:51.605Z,24.41
2023-01-22T19:25:21.316Z,24.38
2023-01-22T19:27:50.990Z,24.38
2023-01-22T19:30:20.394Z,24.38
2023-01-22T19:32:49.593Z,24.40
2023-01-22T19:35:19.043Z,24.41
2023-01-22T19:37:48.410Z,24.44
2023-01-22T19:40:17.614Z,24.46
2023-01-22T19:42:47.781Z,24.49
2023-01-22T19:45:17.242Z,24.50
2023-01-22T19:47:46.598Z,24.53
2023-01-22T19:50:15.972Z,24.54
2023-01-22T19:52:45.168Z,24.59
2023-01-22T19:55:14.374Z,24.60
2023-01-22T19:57:43.718Z,24.63
2023-01-22T20:00:13.762Z,24.64
2023-01-22T20:02:44.369Z,24.67
2023-01-22T20:05:15.005Z,24.70
2023-01-22T20:07:45.536Z,24.73
2023-01-22T20:10:16.352Z,24.75
2023-01-22T20:12:45.726Z,24.79
2023-01-22T20:15:16.487Z,24.81
2023-01-22T20:17:45.632Z,24.84
2023-01-22T20:20:15.041Z,24.88
2023-01-22T20:22:44.327Z,24.90
2023-01-22T20:25:13.509Z,24.93
2023-01-22T20:27:44.873Z,24.90
2023-01-22T20:30:14.209Z,24.88
2023-01-22T20:32:43.475Z,24.85
2023-01-22T20:35:14.259Z,24.83
2023-01-22T20:37:43.619Z,24.81
2023-01-22T20:40:13.108Z,24.79
2023-01-22T20:42:42.460Z,24.78
2023-01-22T20:45:11.861Z,24.77
2023-01-22T20:47:40.984Z,24.75
2023-01-22T20:50:10.681Z,24.73
2023-01-22T20:52:39.771Z,24.73
2023-01-22T20:55:10.907Z,24.71
2023-01-22T20:57:40.320Z,24.70
2023-01-22T21:00:09.941Z,24.70
2023-01-22T21:02:39.039Z,24.68
2023-01-22T21:05:08.438Z,24.66
2023-01-22T21:07:37.519Z,24.66
2023-01-22T21:10:07.676Z,24.65
2023-01-22T21:12:37.035Z,24.64
2023-01-22T21:15:06.629Z,24.62
2023-01-22T21:17:35.875Z,24.62
2023-01-22T21:20:07.149Z,24.61
2023-01-22T21:22:36.852Z,24.60
2023-01-22T21:25:06.217Z,24.59
2023-01-22T21:27:35.591Z,24.59
2023-01-22T21:30:05.360Z,24.58
2023-01-22T21:32:34.632Z,24.57
2023-01-22T21:35:03.934Z,24.55
2023-01-22T21:37:35.876Z,24.54
2023-01-22T21:40:05.117Z,24.53
2023-01-22T21:42:51.762Z,24.53
2023-01-22T21:45:38.471Z,24.53
2023-01-22T21:48:07.786Z,24.51
2023-01-22T21:50:38.474Z,24.49
2023-01-22T21:53:07.722Z,24.48
2023-01-22T21:55:37.421Z,24.47
2023-01-22T21:58:08.658Z,24.48
2023-01-22T22:00:37.370Z,24.52
2023-01-22T22:03:06.680Z,24.57
2023-01-22T22:05:36.147Z,24.60
2023-01-22T22:08:05.320Z,24.64
2023-01-22T22:10:34.385Z,24.67
2023-01-22T22:13:03.571Z,24.71
2023-01-22T22:15:32.733Z,24.74
2023-01-22T22:18:02.545Z,24.78
2023-01-22T22:20:33.896Z,24.81
2023-01-22T22:23:03.432Z,24.86
2023-01-22T22:25:33.770Z,24.89
2023-01-22T22:28:03.573Z,24.92
2023-01-22T22:30:33.370Z,24.96
2023-01-22T22:33:03.423Z,25.01
2023-01-22T22:35:33.945Z,25.04
2023-01-22T22:38:03.838Z,25.03
2023-01-22T22:40:33.780Z,25.03
2023-01-22T22:43:03.576Z,25.01
2023-01-22T22:45:35.618Z,25.01
2023-01-22T22:48:04.791Z,25.01
2023-01-22T22:50:34.038Z,24.99
2023-01-22T22:53:03.444Z,24.99
2023-01-22T22:55:32.913Z,24.97
2023-01-22T22:58:04.958Z,24.98
2023-01-22T23:00:34.135Z,24.96
2023-01-22T23:03:03.642Z,24.96
2023-01-22T23:05:34.954Z,24.94
2023-01-22T23:08:04.221Z,24.93
2023-01-22T23:10:33.547Z,24.94
2023-01-22T23:13:03.965Z,24.94
2023-01-22T23:15:33.569Z,24.93
2023-01-22T23:18:03.518Z,24.91
2023-01-22T23:20:33.737Z,24.90
2023-01-22T23:23:03.619Z,24.89
2023-01-22T23:25:36.409Z,24.87
2023-01-22T23:28:05.845Z,24.88
2023-01-22T23:30:36.483Z,24.86
2023-01-22T23:33:05.784Z,24.84
2023-01-22T23:35:35.072Z,24.84
2023-01-22T23:38:04.290Z,24.83
2023-01-22T23:40:34.664Z,24.82
2023-01-22T23:43:04.129Z,24.79
2023-01-22T23:45:33.726Z,24.77
2023-01-22T23:48:03.656Z,24.75
2023-01-22T23:50:33.950Z,24.73
2023-01-22T23:53:03.682Z,24.71
2023-01-22T23:55:33.668Z,24.69
2023-01-22T23:58:03.690Z,24.69
